Time;durP1;ratioP1;P1;durP2;ratioP2;P2;SDS_P1;SDS_P2;PMS_P1;PMS_P2;Temp;Humidity;BMP_temperature;BMP_pressure;BME280_temperature;BME280_humidity;BME280_pressure;Samples;Min_cycle;Max_cycle;Signal;HPM_P1;HPM_P2
2023/04/21 00:00:00;;;;;;;0.20;0.20;;;7.60;99.90;;;;;;5052245;28;20386;-74
2023/04/21 00:02:26;;;;;;;0.20;0.20;;;7.50;99.90;;;;;;5051838;28;20027;-74
2023/04/21 00:04:52;;;;;;;0.20;0.20;;;7.60;99.90;;;;;;5052528;28;20017;-74
2023/04/21 00:07:19;;;;;;;0.20;0.20;;;7.60;99.90;;;;;;5052453;28;20037;-74
2023/04/21 00:09:44;;;;;;;0.20;0.20;;;7.60;99.90;;;;;;5053621;28;20087;-74
2023/04/21 00:12:10;;;;;;;0.10;0.10;;;7.70;99.90;;;;;;5055982;28;20029;-74
2023/04/21 00:14:35;;;;;;;0.20;0.20;;;7.70;99.90;;;;;;5037699;28;20025;-74
2023/04/21 00:17:01;;;;;;;0.20;0.20;;;7.60;99.90;;;;;;5055479;28;20060;-74
2023/04/21 00:19:28;;;;;;;0.20;0.20;;;7.70;99.90;;;;;;5055701;28;20017;-74
2023/04/21 00:21:57;;;;;;;0.20;0.20;;;7.70;99.90;;;;;;5055535;28;20505;-74
2023/04/21 00:24:24;;;;;;;0.20;0.20;;;7.70;99.90;;;;;;5037087;28;20505;-74
2023/04/21 00:26:52;;;;;;;0.20;0.20;;;7.60;99.90;;;;;;5037083;28;20029;-74
2023/04/21 00:29:18;;;;;;;0.20;0.20;;;7.60;99.90;;;;;;5037872;28;20025;-74
2023/04/21 00:31:43;;;;;;;0.20;0.20;;;7.50;99.90;;;;;;5055668;28;20021;-74
2023/04/21 00:34:09;;;;;;;0.20;0.20;;;7.50;99.90;;;;;;5055137;28;20025;-74
2023/04/21 00:36:34;;;;;;;0.30;0.30;;;7.50;99.90;;;;;;5055658;28;20071;-74
2023/04/21 00:39:00;;;;;;;0.17;0.17;;;7.50;99.90;;;;;;5055908;28;20106;-74
2023/04/21 00:41:28;;;;;;;0.20;0.20;;;7.40;99.90;;;;;;5055494;28;20025;-75
2023/04/21 00:44:04;;;;;;;0.20;0.20;;;7.40;99.90;;;;;;5055594;28;20035;-74
2023/04/21 00:46:30;;;;;;;0.20;0.20;;;7.30;99.90;;;;;;5055414;28;20045;-74
2023/04/21 00:48:57;;;;;;;0.20;0.20;;;7.30;99.90;;;;;;5054914;28;20443;-74
2023/04/21 00:51:23;;;;;;;0.20;0.20;;;7.30;99.90;;;;;;5055140;28;20025;-74
2023/04/21 00:53:52;;;;;;;0.20;0.20;;;7.30;99.90;;;;;;5055341;28;20041;-74
2023/04/21 00:56:18;;;;;;;0.20;0.20;;;7.20;99.90;;;;;;5055283;28;20513;-74
2023/04/21 00:58:44;;;;;;;0.20;0.20;;;7.20;99.90;;;;;;5054697;28;20032;-75
2023/04/21 01:01:12;;;;;;;0.20;0.20;;;7.30;99.90;;;;;;5055142;28;20036;-74
2023/04/21 01:03:37;;;;;;;0.20;0.20;;;7.30;99.90;;;;;;5055743;28;20021;-75
2023/04/21 01:06:03;;;;;;;0.20;0.20;;;7.30;99.90;;;;;;5055051;28;20017;-74
2023/04/21 01:08:28;;;;;;;0.20;0.20;;;7.30;99.90;;;;;;5055329;28;20064;-74
2023/04/21 01:10:54;;;;;;;0.20;0.20;;;7.40;99.90;;;;;;5054345;28;20452;-74
2023/04/21 01:13:21;;;;;;;0.20;0.20;;;7.40;99.90;;;;;;5054957;28;20561;-75
2023/04/21 01:15:47;;;;;;;0.20;0.20;;;7.40;99.90;;;;;;5054890;28;20033;-74
2023/04/21 01:18:13;;;;;;;0.20;0.20;;;7.30;99.90;;;;;;5055087;28;20029;-75
2023/04/21 01:20:39;;;;;;;0.20;0.20;;;7.20;99.90;;;;;;5053929;28;20543;-74
2023/04/21 01:23:04;;;;;;;0.20;0.20;;;7.20;99.90;;;;;;5054390;28;20104;-75
2023/04/21 01:25:30;;;;;;;0.20;0.20;;;7.10;99.90;;;;;;5054661;28;20021;-74
2023/04/21 01:27:55;;;;;;;0.17;0.17;;;7.20;99.90;;;;;;5036841;28;20025;-74
2023/04/21 01:30:21;;;;;;;0.20;0.20;;;7.20;99.90;;;;;;5054454;28;20376;-74
2023/04/21 01:32:47;;;;;;;0.15;0.15;;;7.20;99.90;;;;;;5054681;28;20585;-74
2023/04/21 01:35:12;;;;;;;0.20;0.20;;;7.20;99.90;;;;;;5036171;28;20398;-74
2023/04/21 01:37:38;;;;;;;0.20;0.20;;;7.20;99.90;;;;;;5054434;28;20430;-74
2023/04/21 01:40:06;;;;;;;0.20;0.20;;;7.20;99.90;;;;;;5054745;28;20108;-74
2023/04/21 01:42:33;;;;;;;0.25;0.25;;;7.20;99.90;;;;;;5036425;28;20075;-74
2023/04/21 01:44:59;;;;;;;0.10;0.10;;;7.10;99.90;;;;;;5054095;28;20021;-75
2023/04/21 01:47:25;;;;;;;0.20;0.20;;;7.20;99.90;;;;;;5054344;28;20048;-75
2023/04/21 01:49:51;;;;;;;0.20;0.20;;;7.20;99.90;;;;;;5054219;28;20501;-75
2023/04/21 01:52:17;;;;;;;0.20;0.20;;;7.20;99.90;;;;;;5093286;23;20049;-75
2023/04/21 01:54:42;;;;;;;0.20;0.20;;;7.20;99.90;;;;;;5014461;28;20037;-74
2023/04/21 01:57:08;;;;;;;0.20;0.20;;;7.30;99.90;;;;;;4992506;28;20038;-74
2023/04/21 01:59:33;;;;;;;0.20;0.20;;;7.20;99.90;;;;;;4995847;28;20026;-74
2023/04/21 02:01:59;;;;;;;0.20;0.20;;;7.30;99.90;;;;;;5024676;28;20056;-74
2023/04/21 02:04:24;;;;;;;0.20;0.20;;;7.40;99.90;;;;;;5033327;28;20057;-74
2023/04/21 02:06:50;;;;;;;0.20;0.20;;;7.40;99.90;;;;;;5033774;28;20029;-74
2023/04/21 02:09:19;;;;;;;0.20;0.20;;;7.30;99.90;;;;;;5033932;28;20029;-74
2023/04/21 02:11:44;;;;;;;0.20;0.20;;;7.20;99.90;;;;;;5033550;28;20390;-74
2023/04/21 02:14:10;;;;;;;0.10;0.10;;;7.10;99.90;;;;;;5033208;28;20022;-74
2023/04/21 02:16:35;;;;;;;0.20;0.20;;;7.10;99.90;;;;;;5033561;28;20040;-74
2023/04/21 02:19:01;;;;;;;0.20;0.20;;;7.10;99.90;;;;;;5033677;28;20025;-74
2023/04/21 02:21:29;;;;;;;0.20;0.20;;;7.10;99.90;;;;;;5033736;28;20020;-73
2023/04/21 02:23:55;;;;;;;0.20;0.20;;;7.00;99.90;;;;;;5033122;28;20052;-74
2023/04/21 02:26:20;;;;;;;0.15;0.15;;;7.10;99.90;;;;;;5033517;28;20029;-74
2023/04/21 02:28:46;;;;;;;0.10;0.10;;;7.10;99.90;;;;;;5033379;28;20072;-75
2023/04/21 02:31:12;;;;;;;0.17;0.17;;;7.10;99.90;;;;;;5033339;28;20467;-75
2023/04/21 02:33:38;;;;;;;0.20;0.20;;;7.10;99.90;;;;;;5032698;28;20025;-75
2023/04/21 02:36:04;;;;;;;0.22;0.22;;;7.10;99.90;;;;;;5034051;28;20434;-75
2023/04/21 02:38:30;;;;;;;0.20;0.20;;;7.10;99.90;;;;;;5033322;28;20030;-75
2023/04/21 02:40:56;;;;;;;0.30;0.30;;;7.00;99.90;;;;;;5033476;28;20029;-75
2023/04/21 02:43:22;;;;;;;0.20;0.20;;;7.00;99.90;;;;;;5033311;28;20030;-75
2023/04/21 02:45:47;;;;;;;0.17;0.17;;;7.00;99.90;;;;;;5033254;28;20087;-75
2023/04/21 02:48:13;;;;;;;0.10;0.10;;;6.90;99.90;;;;;;5032770;28;20060;-75
2023/04/21 02:50:39;;;;;;;0.10;0.10;;;6.90;99.90;;;;;;5033170;28;20024;-75
2023/04/21 02:53:04;;;;;;;0.20;0.20;;;6.90;99.90;;;;;;5033006;28;20033;-74
2023/04/21 02:55:30;;;;;;;0.10;0.10;;;7.00;99.90;;;;;;5032954;28;20037;-74
2023/04/21 02:57:56;;;;;;;0.20;0.20;;;7.00;99.90;;;;;;5032820;28;20029;-75
2023/04/21 03:00:21;;;;;;;0.20;0.20;;;7.00;99.90;;;;;;5032960;28;20029;-75
2023/04/21 03:02:47;;;;;;;0.20;0.20;;;7.00;99.90;;;;;;5032998;28;20029;-75
2023/04/21 03:05:12;;;;;;;0.20;0.20;;;7.00;99.90;;;;;;5033092;28;20099;-74
2023/04/21 03:07:38;;;;;;;0.10;0.10;;;7.00;99.90;;;;;;5015024;28;20441;-73
2023/04/21 03:10:05;;;;;;;0.20;0.20;;;7.00;99.90;;;;;;5032966;28;20025;-75
2023/04/21 03:12:31;;;;;;;0.20;0.20;;;6.90;99.90;;;;;;5032567;28;20037;-74
2023/04/21 03:14:57;;;;;;;0.20;0.20;;;7.00;99.90;;;;;;5032140;28;20033;-74
2023/04/21 03:17:23;;;;;;;0.10;0.10;;;6.90;99.90;;;;;;5032762;28;20021;-74
2023/04/21 03:19:49;;;;;;;0.10;0.10;;;6.90;99.90;;;;;;5015214;28;20021;-74
2023/04/21 03:22:14;;;;;;;0.20;0.20;;;7.00;99.90;;;;;;5032878;28;20109;-75
2023/04/21 03:24:40;;;;;;;0.20;0.20;;;7.00;99.90;;;;;;5033027;28;20025;-75
2023/04/21 03:27:08;;;;;;;0.30;0.30;;;7.00;99.90;;;;;;5032340;28;20029;-75
2023/04/21 03:29:35;;;;;;;0.20;0.20;;;6.90;99.90;;;;;;5032697;28;20028;-75
2023/04/21 03:32:00;;;;;;;0.20;0.20;;;7.00;99.90;;;;;;5032407;28;20372;-75
2023/04/21 03:34:26;;;;;;;0.20;0.20;;;7.00;99.90;;;;;;5032607;28;20025;-74
2023/04/21 03:36:51;;;;;;;0.20;0.20;;;6.90;99.90;;;;;;5032281;28;20022;-74
2023/04/21 03:39:17;;;;;;;0.20;0.20;;;6.90;99.90;;;;;;5032848;28;20018;-74
2023/04/21 03:41:42;;;;;;;0.20;0.20;;;6.90;99.90;;;;;;5032673;28;20395;-74
2023/04/21 03:44:08;;;;;;;0.20;0.20;;;6.90;99.90;;;;;;5033820;28;20033;-74
2023/04/21 03:46:33;;;;;;;0.17;0.17;;;6.90;99.90;;;;;;5036116;28;20025;-74
2023/04/21 03:48:59;;;;;;;0.28;0.28;;;6.90;99.90;;;;;;5036897;28;20495;-74
2023/04/21 03:51:25;;;;;;;0.20;0.20;;;6.90;99.90;;;;;;5036279;28;20049;-74
2023/04/21 03:53:51;;;;;;;0.20;0.20;;;7.00;99.90;;;;;;5036344;28;20479;-74
2023/04/21 03:56:17;;;;;;;0.20;0.20;;;7.00;99.90;;;;;;5036207;28;20029;-74
2023/04/21 03:58:42;;;;;;;0.20;0.20;;;7.00;99.90;;;;;;5035661;28;20049;-74
2023/04/21 04:01:08;;;;;;;0.20;0.20;;;7.00;99.90;;;;;;5036170;28;20131;-74
2023/04/21 04:03:33;;;;;;;0.20;0.20;;;7.00;99.90;;;;;;5036587;28;20021;-74
2023/04/21 04:05:59;;;;;;;0.17;0.17;;;7.00;99.90;;;;;;5035937;28;20030;-74
2023/04/21 04:08:24;;;;;;;0.20;0.20;;;7.00;99.90;;;;;;5036245;28;20021;-74
2023/04/21 04:10:50;;;;;;;0.20;0.20;;;7.00;99.90;;;;;;5036573;28;20039;-74
2023/04/21 04:13:16;;;;;;;0.20;0.20;;;7.00;99.90;;;;;;5018392;28;20071;-74
2023/04/21 04:15:41;;;;;;;0.20;0.20;;;7.00;99.90;;;;;;5036373;28;20083;-74
2023/04/21 04:18:07;;;;;;;0.20;0.20;;;7.00;99.90;;;;;;5018247;28;20029;-74
2023/04/21 04:20:32;;;;;;;0.28;0.28;;;6.90;99.90;;;;;;5017643;28;20021;-74
2023/04/21 04:22:58;;;;;;;0.20;0.20;;;6.90;99.90;;;;;;5035775;28;20013;-74
2023/04/21 04:25:23;;;;;;;0.20;0.20;;;6.90;99.90;;;;;;5035778;28;20036;-74
2023/04/21 04:27:49;;;;;;;0.20;0.20;;;7.00;99.90;;;;;;5018099;28;20025;-74
2023/04/21 04:30:15;;;;;;;0.30;0.30;;;7.00;99.90;;;;;;5035884;28;20022;-73
2023/04/21 04:32:41;;;;;;;0.20;0.20;;;7.00;99.90;;;;;;5035129;28;20030;-74
2023/04/21 04:35:08;;;;;;;0.20;0.20;;;7.00;99.90;;;;;;5017465;28;20517;-73
2023/04/21 04:37:35;;;;;;;0.20;0.20;;;7.00;99.90;;;;;;5035593;28;20479;-74
2023/04/21 04:40:04;;;;;;;0.20;0.20;;;7.00;99.90;;;;;;5035697;28;20028;-75
2023/04/21 04:42:30;;;;;;;0.20;0.20;;;6.90;99.90;;;;;;5017244;28;20021;-74
2023/04/21 04:45:00;;;;;;;0.20;0.20;;;7.00;99.90;;;;;;5035635;28;20394;-74
2023/04/21 04:47:26;;;;;;;0.30;0.30;;;7.00;99.90;;;;;;5017873;28;20029;-74
2023/04/21 04:49:51;;;;;;;0.30;0.30;;;7.10;99.90;;;;;;5035408;28;20368;-74
2023/04/21 04:52:17;;;;;;;0.28;0.28;;;7.10;99.90;;;;;;5035302;28;20075;-74
2023/04/21 04:54:42;;;;;;;0.20;0.20;;;7.10;99.90;;;;;;5034583;28;20445;-74
2023/04/21 04:57:08;;;;;;;0.20;0.20;;;7.10;99.90;;;;;;5035381;28;20505;-74
2023/04/21 04:59:35;;;;;;;0.20;0.20;;;7.20;99.90;;;;;;5035217;28;20032;-74
2023/04/21 05:02:01;;;;;;;0.10;0.10;;;7.20;99.90;;;;;;5017171;28;20018;-74
2023/04/21 05:04:27;;;;;;;0.10;0.10;;;7.30;99.90;;;;;;5034617;28;20421;-74
2023/04/21 05:06:52;;;;;;;0.22;0.22;;;7.30;99.90;;;;;;5035251;28;20105;-74
2023/04/21 05:09:18;;;;;;;0.20;0.20;;;7.40;99.90;;;;;;5017358;28;20487;-74
2023/04/21 05:11:43;;;;;;;0.20;0.20;;;7.40;99.90;;;;;;5035016;28;20042;-74
2023/04/21 05:14:09;;;;;;;0.20;0.20;;;7.40;99.90;;;;;;5034587;28;20026;-74
2023/04/21 05:16:35;;;;;;;0.20;0.20;;;7.50;99.90;;;;;;5034980;28;20025;-74
2023/04/21 05:19:01;;;;;;;0.20;0.20;;;7.50;99.90;;;;;;5034820;28;20033;-74
2023/04/21 05:21:27;;;;;;;0.10;0.10;;;7.60;99.90;;;;;;5034831;28;20029;-74
2023/04/21 05:23:54;;;;;;;0.20;0.20;;;7.60;99.90;;;;;;5034821;28;20040;-74
2023/04/21 05:26:20;;;;;;;0.20;0.20;;;7.70;99.90;;;;;;5034121;28;20033;-73
2023/04/21 05:28:45;;;;;;;0.10;0.10;;;7.80;99.90;;;;;;5016953;28;20434;-74
2023/04/21 05:31:14;;;;;;;0.10;0.10;;;7.90;99.90;;;;;;5034647;28;20087;-73
2023/04/21 05:33:40;;;;;;;0.20;0.20;;;8.00;99.90;;;;;;5016587;28;20506;-74
2023/04/21 05:36:07;;;;;;;0.15;0.15;;;8.10;99.90;;;;;;5034534;28;20072;-74
2023/04/21 05:38:33;;;;;;;0.20;0.20;;;8.10;99.90;;;;;;5034257;28;20032;-73
2023/04/21 05:40:59;;;;;;;0.15;0.15;;;8.30;99.90;;;;;;5034481;28;20025;-73
2023/04/21 05:43:24;;;;;;;0.10;0.10;;;8.30;99.90;;;;;;5034453;28;20032;-74
2023/04/21 05:45:50;;;;;;;0.20;0.20;;;8.40;99.90;;;;;;5034415;28;20414;-74
2023/04/21 05:48:15;;;;;;;0.20;0.20;;;8.40;99.90;;;;;;5034405;28;20030;-74
2023/04/21 05:50:41;;;;;;;0.20;0.20;;;8.50;99.90;;;;;;5034172;28;20040;-74
2023/04/21 05:53:06;;;;;;;0.20;0.20;;;8.60;99.90;;;;;;5034066;28;20029;-73
2023/04/21 05:55:36;;;;;;;0.20;0.20;;;8.70;99.90;;;;;;5034157;28;20025;-74
2023/04/21 05:58:02;;;;;;;0.20;0.20;;;8.80;99.90;;;;;;5034128;28;20471;-74
2023/04/21 06:00:28;;;;;;;0.13;0.13;;;8.90;99.90;;;;;;5033956;28;20018;-74
2023/04/21 06:02:56;;;;;;;0.20;0.20;;;9.00;99.90;;;;;;5015532;28;20116;-74
2023/04/21 06:05:25;;;;;;;0.20;0.20;;;9.20;99.90;;;;;;5016274;28;20426;-74
2023/04/21 06:07:50;;;;;;;0.20;0.20;;;9.30;99.90;;;;;;5033449;28;20033;-74
2023/04/21 06:10:17;;;;;;;0.17;0.17;;;9.40;99.90;;;;;;5016276;28;20112;-74
2023/04/21 06:12:42;;;;;;;0.10;0.10;;;9.50;99.90;;;;;;5032929;28;20136;-74
2023/04/21 06:15:08;;;;;;;0.20;0.20;;;9.70;99.90;;;;;;5033804;28;20026;-74
2023/04/21 06:17:37;;;;;;;0.20;0.20;;;9.80;99.90;;;;;;5015672;28;20030;-74
2023/04/21 06:20:03;;;;;;;0.10;0.10;;;9.90;99.90;;;;;;5033360;28;20418;-73
2023/04/21 06:22:28;;;;;;;0.10;0.10;;;10.00;99.90;;;;;;5015507;28;20024;-74
2023/04/21 06:24:54;;;;;;;0.20;0.20;;;10.20;99.90;;;;;;5015920;28;20089;-74
2023/04/21 06:27:19;;;;;;;0.20;0.20;;;10.30;99.90;;;;;;5033668;28;20025;-74
2023/04/21 06:29:48;;;;;;;0.13;0.13;;;10.40;99.90;;;;;;5033692;28;20411;-74
2023/04/21 06:32:13;;;;;;;0.10;0.10;;;10.60;99.90;;;;;;5015243;28;20497;-74
2023/04/21 06:34:39;;;;;;;0.20;0.20;;;10.70;99.90;;;;;;5009456;28;20105;-74
2023/04/21 06:37:04;;;;;;;0.17;0.17;;;10.90;99.90;;;;;;5013521;28;20029;-74
2023/04/21 06:39:30;;;;;;;0.10;0.10;;;11.00;99.90;;;;;;4999598;28;20027;-74
2023/04/21 06:41:57;;;;;;;0.17;0.17;;;11.10;99.90;;;;;;5032486;28;20501;-73
2023/04/21 06:44:22;;;;;;;0.20;0.20;;;11.20;99.90;;;;;;5033226;28;20032;-74
2023/04/21 06:46:48;;;;;;;0.20;0.20;;;11.30;99.90;;;;;;5033368;28;20022;-74
2023/04/21 06:49:13;;;;;;;0.30;0.30;;;11.40;99.90;;;;;;5032933;28;20036;-74
2023/04/21 06:51:39;;;;;;;0.20;0.20;;;11.50;99.90;;;;;;5032538;28;20037;-73
2023/04/21 06:54:05;;;;;;;0.20;0.20;;;11.50;99.90;;;;;;5032812;28;20066;-74
2023/04/21 06:56:31;;;;;;;0.20;0.20;;;11.60;99.90;;;;;;5032920;28;20034;-74
2023/04/21 06:58:57;;;;;;;0.20;0.20;;;11.80;99.90;;;;;;5032918;28;20391;-73
2023/04/21 07:01:25;;;;;;;0.20;0.20;;;11.90;99.90;;;;;;5014941;28;20028;-74
2023/04/21 07:03:53;;;;;;;0.20;0.20;;;12.10;99.90;;;;;;5032474;28;20029;-73
2023/04/21 07:06:18;;;;;;;0.20;0.20;;;12.20;99.90;;;;;;5015185;28;20027;-73
2023/04/21 07:08:44;;;;;;;0.20;0.20;;;12.40;99.90;;;;;;5032868;28;20104;-73
2023/04/21 07:11:10;;;;;;;0.10;0.10;;;12.50;99.90;;;;;;5032602;28;20103;-73
2023/04/21 07:13:35;;;;;;;0.20;0.20;;;12.60;99.90;;;;;;5032354;28;20029;-73
2023/04/21 07:16:01;;;;;;;0.13;0.13;;;12.70;99.90;;;;;;5033327;28;20025;-73
2023/04/21 07:18:26;;;;;;;0.20;0.20;;;12.90;99.90;;;;;;5032304;28;20038;-75
2023/04/21 07:20:52;;;;;;;0.20;0.20;;;13.00;99.90;;;;;;5036804;28;20031;-73
2023/04/21 07:23:18;;;;;;;0.20;0.20;;;13.20;99.90;;;;;;5036882;28;20076;-74
2023/04/21 07:25:43;;;;;;;0.10;0.10;;;13.40;99.90;;;;;;5019124;28;20029;-74
2023/04/21 07:28:09;;;;;;;0.10;0.10;;;13.50;99.90;;;;;;5036573;28;20033;-74
2023/04/21 07:30:35;;;;;;;0.15;0.15;;;13.60;99.90;;;;;;5036648;28;20049;-74
2023/04/21 07:33:01;;;;;;;0.20;0.20;;;13.70;99.90;;;;;;5036445;28;20040;-74
2023/04/21 07:35:27;;;;;;;0.20;0.20;;;13.90;99.90;;;;;;5036138;28;20025;-73
2023/04/21 07:37:52;;;;;;;0.10;0.10;;;13.90;99.90;;;;;;5036730;28;20036;-74
2023/04/21 07:40:18;;;;;;;0.20;0.20;;;14.20;99.90;;;;;;5036437;28;20124;-74
2023/04/21 07:42:44;;;;;;;0.10;0.10;;;14.20;99.90;;;;;;5020999;28;20148;-75
2023/04/21 07:45:10;;;;;;;0.10;0.10;;;14.40;99.90;;;;;;5027146;28;20102;-74
2023/04/21 07:47:35;;;;;;;0.20;0.20;;;14.50;99.90;;;;;;5036000;28;20478;-74
2023/04/21 07:50:05;;;;;;;0.10;0.10;;;14.70;99.90;;;;;;5019482;28;20029;-74
2023/04/21 07:52:31;;;;;;;0.20;0.20;;;14.70;99.90;;;;;;5035620;28;20502;-73
2023/04/21 07:54:56;;;;;;;0.10;0.10;;;14.80;99.90;;;;;;5036120;28;20059;-74
2023/04/21 07:57:24;;;;;;;0.15;0.15;;;14.90;99.90;;;;;;5036232;28;20022;-74
2023/04/21 07:59:49;;;;;;;0.10;0.10;;;14.90;99.90;;;;;;5018691;28;20442;-74
2023/04/21 08:02:15;;;;;;;0.20;0.20;;;15.00;99.90;;;;;;5035416;28;20025;-74
2023/04/21 08:04:41;;;;;;;0.20;0.20;;;15.10;99.90;;;;;;5036354;28;20071;-73
2023/04/21 08:07:08;;;;;;;0.13;0.13;;;15.30;99.90;;;;;;5036671;28;20032;-73
2023/04/21 08:09:37;;;;;;;0.20;0.20;;;15.40;99.90;;;;;;5018345;28;20057;-74
2023/04/21 08:12:03;;;;;;;0.10;0.10;;;15.70;99.90;;;;;;5035793;28;20029;-75
2023/04/21 08:14:28;;;;;;;0.20;0.20;;;15.70;99.90;;;;;;5016491;28;20112;-74
2023/04/21 08:16:54;;;;;;;0.10;0.10;;;15.70;99.90;;;;;;5034878;28;20491;-74
2023/04/21 08:19:19;;;;;;;0.10;0.10;;;15.80;99.90;;;;;;5053882;28;20033;-74
2023/04/21 08:21:45;;;;;;;0.10;0.10;;;15.90;99.90;;;;;;5046993;28;20030;-74
2023/04/21 08:24:11;;;;;;;0.20;0.20;;;16.00;99.90;;;;;;5047622;28;20029;-74
2023/04/21 08:26:36;;;;;;;0.10;0.10;;;16.10;99.90;;;;;;5055124;28;20397;-74
2023/04/21 08:29:04;;;;;;;0.20;0.20;;;16.10;99.90;;;;;;5037396;28;20030;-74
2023/04/21 08:31:32;;;;;;;0.10;0.10;;;16.30;99.90;;;;;;5017366;28;20030;-74
2023/04/21 08:34:01;;;;;;;0.10;0.10;;;16.50;99.90;;;;;;5033955;28;20040;-74
2023/04/21 08:36:27;;;;;;;0.20;0.20;;;16.30;99.90;;;;;;5035113;28;20049;-74
2023/04/21 08:38:52;;;;;;;0.10;0.10;;;16.50;99.90;;;;;;5035639;28;20029;-74
2023/04/21 08:41:21;;;;;;;0.10;0.10;;;16.80;99.90;;;;;;5035185;28;20132;-74
2023/04/21 08:43:47;;;;;;;0.20;0.20;;;17.00;99.90;;;;;;5034955;28;20079;-75
2023/04/21 08:46:14;;;;;;;0.20;0.20;;;16.90;99.90;;;;;;5035103;28;20025;-75
2023/04/21 08:48:40;;;;;;;0.10;0.10;;;17.00;99.90;;;;;;5035406;28;20034;-75
2023/04/21 08:51:10;;;;;;;0.10;0.10;;;17.10;99.90;;;;;;5035082;28;20029;-75
2023/04/21 08:53:36;;;;;;;0.20;0.20;;;17.20;99.90;;;;;;5017709;28;20030;-75
2023/04/21 08:56:03;;;;;;;0.10;0.10;;;17.20;99.90;;;;;;5017022;28;20071;-75
2023/04/21 08:58:28;;;;;;;0.10;0.10;;;17.40;99.90;;;;;;5034975;28;20032;-75
2023/04/21 09:00:54;;;;;;;0.10;0.10;;;17.50;99.90;;;;;;5034964;28;20025;-75
2023/04/21 09:03:25;;;;;;;0.20;0.20;;;17.70;99.90;;;;;;5034828;28;20060;-75
2023/04/21 09:06:04;;;;;;;0.10;0.10;;;17.80;99.90;;;;;;5034515;28;20029;-75
2023/04/21 09:08:31;;;;;;;0.10;0.10;;;17.90;99.90;;;;;;5035272;28;20145;-75
2023/04/21 09:11:00;;;;;;;0.10;0.10;;;17.90;99.90;;;;;;5035150;28;20036;-73
2023/04/21 09:13:30;;;;;;;0.20;0.20;;;17.90;99.90;;;;;;5035465;28;20395;-76
2023/04/21 09:15:56;;;;;;;0.20;0.20;;;17.90;99.90;;;;;;5034626;28;20487;-75
2023/04/21 09:18:24;;;;;;;0.10;0.10;;;18.00;99.90;;;;;;5034658;28;20061;-75
2023/04/21 09:21:04;;;;;;;0.10;0.10;;;18.20;99.90;;;;;;5034399;28;20108;-75
2023/04/21 09:23:29;;;;;;;0.10;0.10;;;18.40;99.90;;;;;;5034399;28;20053;-76
2023/04/21 09:25:55;;;;;;;0.10;0.10;;;18.80;99.90;;;;;;5016898;28;20549;-75
2023/04/21 09:28:20;;;;;;;0.10;0.10;;;18.90;99.90;;;;;;5016820;28;20079;-75
2023/04/21 09:30:47;;;;;;;0.10;0.10;;;18.90;99.90;;;;;;5016793;28;20471;-75
2023/04/21 09:33:19;;;;;;;0.20;0.20;;;19.00;99.90;;;;;;5033686;28;20076;-75
2023/04/21 09:35:46;;;;;;;0.15;0.15;;;18.70;99.90;;;;;;5016835;28;20021;-74
2023/04/21 09:38:12;;;;;;;0.10;0.10;;;18.80;99.90;;;;;;5034364;28;20072;-76
2023/04/21 09:40:39;;;;;;;0.10;0.10;;;19.00;99.90;;;;;;5034679;28;20415;-75
2023/04/21 09:43:08;;;;;;;0.10;0.10;;;19.20;99.90;;;;;;5032730;28;20029;-75
2023/04/21 09:45:34;;;;;;;0.10;0.10;;;19.40;99.90;;;;;;5034362;28;20040;-75
2023/04/21 09:48:00;;;;;;;0.10;0.10;;;19.40;99.90;;;;;;5033565;28;20481;-74
2023/04/21 09:50:27;;;;;;;0.10;0.10;;;19.40;99.90;;;;;;5034382;28;20032;-76
2023/04/21 09:52:55;;;;;;;0.10;0.10;;;19.30;99.90;;;;;;5033861;28;20041;-75
2023/04/21 09:55:27;;;;;;;0.10;0.10;;;19.40;99.90;;;;;;5033999;28;20037;-76
2023/04/21 09:57:58;;;;;;;0.10;0.10;;;19.40;99.90;;;;;;5016101;28;20052;-76
2023/04/21 10:00:29;;;;;;;0.10;0.10;;;19.60;99.90;;;;;;5034244;28;20045;-76
2023/04/21 10:02:57;;;;;;;0.10;0.10;;;19.80;99.90;;;;;;5033436;28;20101;-77
2023/04/21 10:05:23;;;;;;;0.10;0.10;;;19.90;99.90;;;;;;5036589;28;20025;-78
2023/04/21 10:07:49;;;;;;;0.10;0.10;;;19.80;99.90;;;;;;5036551;28;20053;-78
2023/04/21 10:10:27;;;;;;;0.20;0.20;;;19.90;99.90;;;;;;5037836;28;20025;-77
2023/04/21 10:12:53;;;;;;;0.10;0.10;;;19.80;99.90;;;;;;5020570;28;20164;-77
2023/04/21 10:15:36;;;;;;;0.10;0.10;;;19.90;99.90;;;;;;5020107;28;20080;-79
2023/04/21 10:18:20;;;;;;;0.10;0.10;;;19.80;99.90;;;;;;5038726;28;20036;-79
2023/04/21 10:20:58;;;;;;;0.10;0.10;;;19.90;99.90;;;;;;5038048;28;20018;-75
2023/04/21 10:23:53;;;;;;;0.17;0.17;;;20.00;99.90;;;;;;5038119;28;20092;-77
2023/04/21 10:26:20;;;;;;;0.20;0.20;;;20.20;99.90;;;;;;5020306;28;20120;-77
2023/04/21 10:28:55;;;;;;;0.10;0.10;;;20.40;99.90;;;;;;5038117;28;20056;-77
2023/04/21 10:31:25;;;;;;;0.10;0.10;;;20.20;99.90;;;;;;5020854;28;20406;-78
2023/04/21 10:34:12;;;;;;;0.10;0.10;;;20.20;99.90;;;;;;5036180;28;20534;-77
2023/04/21 10:36:56;;;;;;;0.10;0.10;;;20.10;99.90;;;;;;5038706;28;20047;-78
2023/04/21 10:39:50;;;;;;;0.10;0.10;;;20.10;99.90;;;;;;5038076;28;20029;-77
2023/04/21 10:42:16;;;;;;;0.10;0.10;;;20.40;99.90;;;;;;5030465;28;20559;-79
2023/04/21 10:44:43;;;;;;;0.10;0.10;;;20.20;99.90;;;;;;5036964;28;20021;-77
2023/04/21 10:47:10;;;;;;;0.10;0.10;;;20.10;99.90;;;;;;5038005;28;20026;-77
2023/04/21 10:49:44;;;;;;;0.10;0.10;;;20.00;99.90;;;;;;5037406;28;20544;-78
2023/04/21 10:52:15;;;;;;;0.10;0.10;;;19.60;99.90;;;;;;5040601;23;20108;-79
2023/04/21 10:54:45;;;;;;;0.13;0.13;;;20.00;99.90;;;;;;5000320;28;20021;-78
2023/04/21 10:57:13;;;;;;;0.10;0.10;;;20.00;99.90;;;;;;5030520;28;20056;-79
2023/04/21 10:59:38;;;;;;;0.10;0.10;;;20.30;99.90;;;;;;5027629;28;20032;-78
2023/04/21 11:02:12;;;;;;;0.10;0.10;;;20.40;99.90;;;;;;5040743;28;20100;-77
2023/04/21 11:04:43;;;;;;;0.10;0.10;;;20.40;99.90;;;;;;5057050;28;20028;-77
2023/04/21 11:07:22;;;;;;;0.10;0.10;;;20.40;99.90;;;;;;5028170;28;20026;-78
2023/04/21 11:10:05;;;;;;;0.10;0.10;;;20.30;99.90;;;;;;5037848;28;20079;-77
2023/04/21 11:12:38;;;;;;;0.10;0.10;;;20.40;99.90;;;;;;5051722;28;20051;-77
2023/04/21 11:15:08;;;;;;;;;;;20.90;99.90;;;;;;5045422;28;20087;-77
2023/04/21 11:17:35;;;;;;;0.10;0.10;;;20.90;99.90;;;;;;5051023;28;20302;-79
2023/04/21 11:20:02;;;;;;;0.10;0.10;;;20.90;99.90;;;;;;5056171;28;20025;-78
2023/04/21 11:22:28;;;;;;;0.08;0.08;;;20.70;99.90;;;;;;5038565;28;20057;-78
2023/04/21 11:24:55;;;;;;;0.10;0.10;;;20.70;99.90;;;;;;5040686;28;20017;-78
2023/04/21 11:27:25;;;;;;;0.10;0.10;;;20.70;99.90;;;;;;5039322;28;20049;-77
2023/04/21 11:29:51;;;;;;;0.10;0.10;;;20.60;99.90;;;;;;5030463;28;20081;-77
2023/04/21 11:32:17;;;;;;;0.10;0.10;;;20.80;99.90;;;;;;5049754;28;20454;-78
2023/04/21 11:34:43;;;;;;;0.10;0.10;;;20.90;99.90;;;;;;5057857;28;20505;-77
2023/04/21 11:37:23;;;;;;;0.10;0.10;;;20.80;99.90;;;;;;5039313;28;20060;-77
2023/04/21 11:39:59;;;;;;;0.10;0.10;;;21.30;99.90;;;;;;5058805;28;20025;-77
2023/04/21 11:42:25;;;;;;;0.10;0.10;;;21.30;99.90;;;;;;5057417;28;20025;-77
2023/04/21 11:44:53;;;;;;;0.10;0.10;;;21.30;99.90;;;;;;5057935;28;20051;-76
2023/04/21 11:47:23;;;;;;;0.00;0.00;;;21.80;99.90;;;;;;5057185;28;20021;-78
2023/04/21 11:49:55;;;;;;;0.10;0.10;;;21.90;99.90;;;;;;5022443;28;20714;-77
2023/04/21 11:52:26;;;;;;;0.00;0.00;;;21.80;99.90;;;;;;5047258;28;20029;-78
2023/04/21 11:55:00;;;;;;;0.10;0.10;;;22.00;99.90;;;;;;5048279;28;20021;-77
2023/04/21 11:57:27;;;;;;;0.05;0.05;;;22.50;99.90;;;;;;5047194;28;20081;-78
2023/04/21 11:59:59;;;;;;;0.00;0.00;;;22.60;99.90;;;;;;5008985;28;20032;-77
2023/04/21 12:02:27;;;;;;;0.00;0.00;;;22.90;99.90;;;;;;5039264;28;20071;-77
2023/04/21 12:05:02;;;;;;;0.10;0.10;;;22.80;99.90;;;;;;5017846;28;20022;-77
2023/04/21 12:07:48;;;;;;;0.10;0.10;;;22.60;99.90;;;;;;5042582;28;20029;-75
2023/04/21 12:10:20;;;;;;;0.10;0.10;;;22.60;99.90;;;;;;5033205;28;20020;-76
2023/04/21 12:12:48;;;;;;;0.10;0.10;;;22.70;99.90;;;;;;5002164;28;20037;-77
2023/04/21 12:15:22;;;;;;;0.10;0.10;;;23.00;99.90;;;;;;5001886;28;20060;-76
2023/04/21 12:17:47;;;;;;;;;;;23.00;99.90;;;;;;5001017;28;20499;-76
2023/04/21 12:20:18;;;;;;;0.00;0.00;;;23.20;99.90;;;;;;5018572;28;19912;-77
2023/04/21 12:22:44;;;;;;;0.10;0.10;;;23.00;99.90;;;;;;5040366;23;20049;-77
2023/04/21 12:25:12;;;;;;;0.00;0.00;;;22.40;99.90;;;;;;5000778;28;20111;-76
2023/04/21 12:27:56;;;;;;;0.00;0.00;;;22.70;99.90;;;;;;5017491;28;20040;-77
2023/04/21 12:30:22;;;;;;;0.05;0.05;;;23.10;99.90;;;;;;5018053;28;20054;-77
2023/04/21 12:32:48;;;;;;;0.10;0.10;;;23.50;99.90;;;;;;5036004;28;20033;-77
2023/04/21 12:35:13;;;;;;;0.08;0.08;;;23.80;99.90;;;;;;5038623;28;20036;-74
2023/04/21 12:37:39;;;;;;;0.00;0.00;;;24.20;99.90;;;;;;5038382;28;20040;-77
2023/04/21 12:40:12;;;;;;;0.00;0.00;;;24.50;99.90;;;;;;5021546;28;20022;-76
2023/04/21 12:42:40;;;;;;;;;;;24.40;99.90;;;;;;5040046;28;20048;-78
2023/04/21 12:45:09;;;;;;;0.00;0.00;;;24.80;99.90;;;;;;5019590;28;19945;-77
2023/04/21 12:47:36;;;;;;;0.00;0.00;;;25.00;99.90;;;;;;5036851;28;20043;-77
2023/04/21 12:50:01;;;;;;;0.00;0.00;;;25.00;99.90;;;;;;5019866;28;20025;-78
2023/04/21 12:52:27;;;;;;;0.00;0.00;;;24.80;99.90;;;;;;5037024;28;20032;-77